หน้าหลัก
METAR-TAF:

METAR-TAF

ท่าอากาศยาน :

Guernsey,

ละติจูด: 49-26N, ลองจิจูด: 002-36W, ความสูง: 102 ม.

การสังเกตสภาพอากาศปัจจุบัน

รายงานได้ทำขึ้นเมื่อ 51 นาทีที่แล้ว ณ เวลา 00:50 UTC
ลม 9 นอตจากตะวันออกเฉียงเหนือ
อุณหภูมิ 14°C
ความชื้น 82%
ความกดอากาศ 1016 hPa
ทัศนวิสัย 10 กม. หรือมากกว่า
มีเมฆน้อยที่ความสูง 4000 ฟุต

METAR: EGJB 190050Z 04009KT 9999 FEW040 14/11 Q1016

เวลา: 02:41 (01:41 UTC)

การพยากรณ์

รายงานได้ทำขึ้นเมื่อ 2 ชั่วโมงและ 42 นาทีที่แล้ว ณ เวลา 22:59 UTC
การพยากรณ์มีผลตั้งแต่วันที่ 19 ณ เวลา 00 UTC จนถึงวันที่ 19 ณ เวลา 09 UTC
ลม 11 นอตจากเหนือ/ตะวันออกเฉียงเหนือ
ทัศนวิสัย 10 กม. หรือมากกว่า
มีเมฆน้อยที่ความสูง 600 ฟุต
มีเมฆกระจายเป็นบางส่วนที่ความสูง 4000 ฟุต

TAF: EGJB 182259Z 1900/1909 03011KT 9999 FEW006 SCT040

สังเกตการณ์สภาพอากาศและพยากรณ์อากาศของสนามบินมากกว่า 4000 แห่ง (รายงาน METAR และ TAF).

สถานีที่ดูได้จะแสดงไว้ด้วยจุดสีเหลืองและสีแดงบนแผนที่.

เลื่อนเมาส์ไปเหนือจุดเพื่อดูชื่อสถานี.

แล้วคลิกเพื่อดูสังเกตการณ์และการพยากรณ์สภาพอากาศ.

ในการเปลี่ยนแผนที่: คลิกที่ปุ่มสีเขียวที่มีกากบาทสีดำเพื่อซูมเข้า; ที่ปุ่มสีเขียวที่มีขีดเพื่อซูมออก; หรือที่ลูกศรสีเขียวเพื่อไปยังแผนที่ที่อยู่ติดกัน.


METAR-TAF: